Time;durP1;ratioP1;P1;durP2;ratioP2;P2;SDS_P1;SDS_P2;PMS_P1;PMS_P2;Temp;Humidity;BMP_temperature;BMP_pressure;BME280_temperature;BME280_humidity;BME280_pressure;Samples;Min_cycle;Max_cycle;Signal;HPM_P1;HPM_P2
2021/09/26 00:08:12;;;;;;;209.90;29.63;;;21.40;59.30;;;;;;20898968;28;20041;-63
2021/09/26 00:18:13;;;;;;;92.10;13.70;;;21.30;60.60;;;;;;20912724;28;20885;-62
2021/09/26 00:28:14;;;;;;;64.80;11.82;;;21.20;62.30;;;;;;20829519;28;20088;-63
2021/09/26 00:38:18;;;;;;;39.78;9.27;;;21.10;63.30;;;;;;20784518;28;20456;-63
2021/09/26 00:48:19;;;;;;;31.63;7.88;;;21.00;64.70;;;;;;20829207;28;20030;-63
2021/09/26 00:58:19;;;;;;;26.75;7.45;;;21.00;64.50;;;;;;20827245;28;20490;-62
2021/09/26 01:08:42;;;;;;;20.88;6.65;;;21.00;65.80;;;;;;20827069;28;20022;-63
2021/09/26 01:18:52;;;;;;;24.83;6.20;;;21.00;66.60;;;;;;20826092;28;20056;-63
2021/09/26 01:29:12;;;;;;;22.02;7.07;;;21.00;67.10;;;;;;20825123;28;20384;-62
2021/09/26 01:39:20;;;;;;;14.40;5.50;;;20.90;66.70;;;;;;20824878;28;20032;-62
2021/09/26 01:49:28;;;;;;;16.40;5.37;;;20.90;67.00;;;;;;20824484;28;20032;-63
2021/09/26 01:59:30;;;;;;;12.07;4.97;;;20.90;66.90;;;;;;20823677;28;20072;-63
2021/09/26 02:09:31;;;;;;;14.52;4.57;;;20.80;67.20;;;;;;20821910;28;20029;-63
2021/09/26 02:19:33;;;;;;;11.83;5.20;;;20.80;67.70;;;;;;20799336;28;20032;-62
2021/09/26 02:29:34;;;;;;;11.80;4.88;;;20.80;67.80;;;;;;20800293;28;20483;-62
2021/09/26 02:39:36;;;;;;;8.40;4.65;;;20.80;68.20;;;;;;20820034;28;20061;-63
2021/09/26 02:49:37;;;;;;;9.57;4.65;;;20.80;67.90;;;;;;20819408;28;20399;-63
2021/09/26 02:59:38;;;;;;;5.95;3.33;;;20.70;67.90;;;;;;20800353;28;20030;-62
2021/09/26 03:09:39;;;;;;;6.85;3.70;;;20.70;67.70;;;;;;20809849;28;20104;-63
2021/09/26 03:19:40;;;;;;;7.55;4.18;;;20.70;67.90;;;;;;20818530;28;20072;-63
2021/09/26 03:29:42;;;;;;;6.53;3.30;;;20.70;67.60;;;;;;20834171;28;20033;-63
2021/09/26 03:39:43;;;;;;;7.22;4.05;;;20.70;68.00;;;;;;20833632;28;20060;-62
2021/09/26 03:49:43;;;;;;;11.48;3.85;;;20.70;67.90;;;;;;20832863;28;20567;-62
2021/09/26 03:59:44;;;;;;;6.53;3.55;;;20.60;67.70;;;;;;20818499;28;20111;-62
2021/09/26 04:09:44;;;;;;;5.10;2.80;;;20.60;67.70;;;;;;20804016;28;20075;-63
2021/09/26 04:19:45;;;;;;;4.90;3.20;;;20.60;67.70;;;;;;20801657;28;20392;-63
2021/09/26 04:29:46;;;;;;;6.03;2.92;;;20.60;67.70;;;;;;20815966;28;20105;-63
2021/09/26 04:39:47;;;;;;;5.70;2.90;;;20.60;67.80;;;;;;20827426;28;20025;-63
2021/09/26 04:49:47;;;;;;;5.22;2.85;;;20.60;67.70;;;;;;20828468;28;20379;-63
2021/09/26 04:59:48;;;;;;;4.97;2.97;;;20.60;67.60;;;;;;20828204;28;20044;-63
2021/09/26 05:09:48;;;;;;;4.10;2.85;;;20.60;67.90;;;;;;20827389;28;20037;-63
2021/09/26 05:19:49;;;;;;;6.17;2.63;;;20.50;67.70;;;;;;20827724;28;20029;-63
2021/09/26 05:29:50;;;;;;;5.60;2.58;;;20.50;67.70;;;;;;20826302;28;20503;-64
2021/09/26 05:39:50;;;;;;;7.78;3.47;;;20.50;67.50;;;;;;20827357;28;20029;-63
2021/09/26 05:49:51;;;;;;;5.38;2.35;;;20.50;67.60;;;;;;20824300;28;20033;-62
2021/09/26 05:59:51;;;;;;;5.90;2.60;;;20.50;67.60;;;;;;20822448;28;20041;-63
2021/09/26 06:09:52;;;;;;;7.03;3.17;;;20.50;67.50;;;;;;20820090;28;20550;-61
2021/09/26 06:19:53;;;;;;;6.28;2.58;;;20.50;67.70;;;;;;20821371;28;20492;-63
2021/09/26 06:29:53;;;;;;;7.63;2.45;;;20.50;67.70;;;;;;20826518;28;20462;-63
2021/09/26 06:39:55;;;;;;;7.93;2.43;;;20.50;67.40;;;;;;20820896;28;20462;-62
2021/09/26 06:49:55;;;;;;;7.90;3.33;;;20.50;67.90;;;;;;20820828;28;21068;-63
2021/09/26 06:59:56;;;;;;;209.60;20.73;;;;;;;;;;20743669;28;20084;-62
2021/09/26 07:09:57;;;;;;;23.27;4.47;;;;;;;;;;20825313;28;20037;-63
2021/09/26 07:19:58;;;;;;;19.60;4.00;;;;;;;;;;20741331;28;20037;-64
2021/09/26 07:29:58;;;;;;;14.63;3.50;;;21.00;87.20;;;;;;20745579;28;20024;-61
2021/09/26 07:39:59;;;;;;;15.73;4.15;;;20.90;61.70;;;;;;20776093;28;20045;-63
2021/09/26 07:50:00;;;;;;;11.02;3.58;;;20.90;61.20;;;;;;20768841;28;20407;-61
2021/09/26 08:00:02;;;;;;;14.13;4.32;;;20.90;61.60;;;;;;20766859;28;20121;-63
2021/09/26 08:10:05;;;;;;;11.65;3.40;;;21.00;60.50;;;;;;20778914;28;20097;-62
2021/09/26 08:20:06;;;;;;;10.65;2.90;;;21.00;60.00;;;;;;20780367;28;20523;-64
2021/09/26 08:30:08;;;;;;;9.98;3.20;;;21.00;59.60;;;;;;20781051;28;20025;-62
2021/09/26 08:40:10;;;;;;;14.73;4.28;;;21.10;59.20;;;;;;20831493;28;20018;-62
2021/09/26 08:50:13;;;;;;;12.90;3.25;;;21.10;59.00;;;;;;20746220;28;20509;-63
2021/09/26 09:00:16;;;;;;;7.80;3.17;;;21.10;58.90;;;;;;20745377;28;20069;-63
2021/09/26 09:10:16;;;;;;;11.35;3.28;;;21.20;58.70;;;;;;20800120;28;20369;-62
2021/09/26 09:20:25;;;;;;;8.20;3.22;;;21.20;58.50;;;;;;20828879;28;20043;-61
2021/09/26 09:30:32;;;;;;;8.35;2.90;;;21.20;58.30;;;;;;20825549;28;20131;-63
2021/09/26 09:40:33;;;;;;;9.27;3.15;;;21.00;59.20;;;;;;20825263;28;20033;-61
2021/09/26 09:50:34;;;;;;;7.85;2.92;;;20.90;60.60;;;;;;20823822;28;20026;-62
2021/09/26 10:00:55;;;;;;;6.43;2.40;;;20.80;61.50;;;;;;20823037;28;20527;-62
2021/09/26 10:11:05;;;;;;;4.38;2.42;;;20.80;62.20;;;;;;20807582;28;20519;-64
2021/09/26 10:21:06;;;;;;;8.13;2.15;;;20.80;62.50;;;;;;20821341;28;20467;-63
2021/09/26 10:31:08;;;;;;;11.45;3.05;;;20.80;62.80;;;;;;20820144;28;20503;-63
2021/09/26 10:41:09;;;;;;;5.82;3.72;;;20.80;65.30;;;;;;20819788;28;20091;-63
2021/09/26 10:51:47;;;;;;;11.32;5.40;;;20.80;65.30;;;;;;20802452;28;20022;-63
2021/09/26 11:01:48;;;;;;;8.50;4.33;;;20.80;64.90;;;;;;20821131;28;20091;-62
2021/09/26 11:11:50;;;;;;;4.47;3.42;;;20.80;65.40;;;;;;20820479;28;20480;-63
2021/09/26 11:21:56;;;;;;;7.97;3.83;;;20.80;65.70;;;;;;20818243;28;20025;-63
2021/09/26 11:31:58;;;;;;;6.43;4.32;;;20.90;65.90;;;;;;20817124;28;20029;-65
2021/09/26 11:41:59;;;;;;;6.38;4.10;;;20.90;66.50;;;;;;20806699;28;20033;-63
2021/09/26 11:52:03;;;;;;;7.72;4.35;;;21.00;66.90;;;;;;20832260;28;20030;-63
2021/09/26 12:02:17;;;;;;;5.72;4.38;;;21.00;67.20;;;;;;20833071;28;20061;-63
2021/09/26 12:12:26;;;;;;;7.07;4.47;;;21.00;67.10;;;;;;20832618;28;20030;-62
2021/09/26 12:22:28;;;;;;;6.55;4.40;;;21.10;67.00;;;;;;20832583;28;20473;-62
2021/09/26 12:32:39;;;;;;;7.00;3.80;;;21.10;67.00;;;;;;20830699;28;20029;-63
2021/09/26 12:42:48;;;;;;;6.95;4.30;;;21.20;67.00;;;;;;20853023;28;20031;-61
2021/09/26 12:52:50;;;;;;;6.60;4.20;;;21.20;67.20;;;;;;20795867;28;20489;-61
2021/09/26 13:02:55;;;;;;;5.65;3.95;;;21.20;67.90;;;;;;20778484;28;20488;-56
2021/09/26 13:12:55;;;;;;;4.93;3.72;;;21.20;68.10;;;;;;20802013;28;20021;-59
2021/09/26 13:23:24;;;;;;;8.80;4.90;;;21.30;68.30;;;;;;20747189;28;20164;-56
2021/09/26 13:33:34;;;;;;;9.57;4.60;;;21.30;68.80;;;;;;20809785;28;21014;-58
2021/09/26 13:43:41;;;;;;;12.45;3.97;;;21.30;69.70;;;;;;20824306;28;20444;-59
2021/09/26 13:53:42;;;;;;;6.90;4.45;;;21.30;68.80;;;;;;20823453;28;20053;-58
2021/09/26 14:03:44;;;;;;;6.55;3.45;;;21.30;69.00;;;;;;20821835;28;20037;-58
2021/09/26 14:13:45;;;;;;;11.63;4.38;;;21.30;68.70;;;;;;20822201;28;20396;-59
2021/09/26 14:23:45;;;;;;;5.18;3.72;;;21.30;69.00;;;;;;20822578;28;20026;-58
2021/09/26 14:33:47;;;;;;;7.75;3.53;;;21.30;69.30;;;;;;20819589;28;20028;-56
2021/09/26 14:43:49;;;;;;;11.18;4.30;;;21.30;69.20;;;;;;20818784;28;20516;-59
2021/09/26 14:53:51;;;;;;;4.95;3.95;;;21.30;69.10;;;;;;20819466;28;20512;-59
2021/09/26 15:03:52;;;;;;;5.75;4.20;;;21.30;68.90;;;;;;20816797;28;20707;-61
2021/09/26 15:13:54;;;;;;;4.43;3.72;;;21.30;69.70;;;;;;20799571;28;20443;-59
2021/09/26 15:23:55;;;;;;;5.68;4.03;;;21.30;69.30;;;;;;20836852;28;20451;-61
2021/09/26 15:33:57;;;;;;;7.38;5.38;;;21.30;69.50;;;;;;20834580;28;20022;-61
2021/09/26 15:43:57;;;;;;;6.22;5.22;;;21.30;69.60;;;;;;20801364;28;20034;-59
2021/09/26 15:53:58;;;;;;;10.30;6.97;;;21.30;69.60;;;;;;20830376;28;20032;-61
2021/09/26 16:03:59;;;;;;;13.23;8.10;;;21.30;69.90;;;;;;20803100;28;20519;-61
2021/09/26 16:13:59;;;;;;;12.68;8.50;;;21.20;70.00;;;;;;20822025;28;20048;-60
2021/09/26 16:24:00;;;;;;;16.02;9.85;;;21.30;70.40;;;;;;20816324;28;20033;-61
2021/09/26 16:34:02;;;;;;;37.67;12.15;;;21.30;72.00;;;;;;20828705;28;20029;-60
2021/09/26 16:44:03;;;;;;;13.07;10.18;;;21.30;73.20;;;;;;20829179;28;20538;-57
2021/09/26 16:54:03;;;;;;;25.65;11.20;;;21.40;73.20;;;;;;20827881;28;20589;-60
2021/09/26 17:04:05;;;;;;;19.35;10.48;;;21.50;73.60;;;;;;20827588;28;20037;-61
2021/09/26 17:14:08;;;;;;;21.77;9.40;;;21.50;73.50;;;;;;20826684;28;20025;-60
2021/09/26 17:24:09;;;;;;;21.15;8.68;;;21.50;73.00;;;;;;20822935;28;20095;-62
2021/09/26 17:42:17;;;;;;;17.65;8.07;;;21.50;72.90;;;;;;20908421;28;20193;-62
2021/09/26 17:52:17;;;;;;;19.27;8.63;;;21.40;72.80;;;;;;20889001;28;20543;-56
2021/09/26 18:02:18;;;;;;;19.00;8.25;;;21.50;73.50;;;;;;20890510;28;20033;-56
2021/09/26 18:12:19;;;;;;;13.90;7.22;;;21.40;73.30;;;;;;20888091;28;20056;-60
2021/09/26 18:22:19;;;;;;;35.22;8.38;;;21.30;73.00;;;;;;20887081;28;20021;-60
2021/09/26 18:32:20;;;;;;;18.75;8.07;;;21.30;72.90;;;;;;20887850;28;20028;-57
2021/09/26 18:42:23;;;;;;;20.63;6.72;;;21.20;72.80;;;;;;20968504;28;20041;-57
2021/09/26 18:52:24;;;;;;;21.65;7.72;;;21.20;72.70;;;;;;20921232;28;20453;-61
2021/09/26 19:02:24;;;;;;;18.33;8.23;;;21.20;73.10;;;;;;20911266;28;20075;-60
2021/09/26 19:12:25;;;;;;;19.35;8.23;;;21.20;73.40;;;;;;20907777;28;20443;-61
2021/09/26 19:22:26;;;;;;;26.30;8.02;;;21.20;73.90;;;;;;20905337;28;20021;-61
2021/09/26 19:32:28;;;;;;;16.92;7.75;;;21.20;74.00;;;;;;20903052;28;20025;-60
2021/09/26 19:42:29;;;;;;;14.68;7.13;;;21.20;73.90;;;;;;20821690;28;20118;-59
2021/09/26 19:52:30;;;;;;;17.10;6.50;;;21.30;73.10;;;;;;20900927;28;20049;-58
2021/09/26 20:02:30;;;;;;;16.50;5.70;;;21.40;70.90;;;;;;20876557;28;20103;-56
2021/09/26 20:12:32;;;;;;;13.02;5.60;;;21.30;69.70;;;;;;20862833;28;20047;-57
2021/09/26 20:22:32;;;;;;;15.93;6.32;;;21.40;68.60;;;;;;20897656;28;20033;-60
2021/09/26 20:32:33;;;;;;;10.25;5.30;;;21.40;67.90;;;;;;20898221;28;20043;-60
2021/09/26 20:42:34;;;;;;;9.10;5.17;;;21.40;67.50;;;;;;20887549;28;20041;-60
2021/09/26 20:52:35;;;;;;;7.15;4.80;;;21.50;67.00;;;;;;20888652;28;20503;-60
2021/09/26 21:02:36;;;;;;;10.23;5.00;;;21.50;66.40;;;;;;20841245;22;20202;-63
2021/09/26 21:12:37;;;;;;;10.93;4.97;;;21.40;67.20;;;;;;20819071;28;20033;-63
2021/09/26 21:22:39;;;;;;;13.38;5.10;;;21.30;68.20;;;;;;20818946;28;20104;-63
2021/09/26 21:32:40;;;;;;;13.43;4.53;;;21.30;69.00;;;;;;20818800;28;20048;-63
2021/09/26 21:42:41;;;;;;;9.15;4.45;;;21.30;69.40;;;;;;20818387;28;20013;-62
2021/09/26 21:52:46;;;;;;;10.15;4.45;;;21.20;69.70;;;;;;20817977;28;20029;-62
2021/09/26 22:02:47;;;;;;;9.50;4.50;;;21.20;69.90;;;;;;20817522;28;20209;-62
2021/09/26 22:12:48;;;;;;;8.05;4.43;;;21.20;70.50;;;;;;20817195;28;20029;-62
2021/09/26 22:22:49;;;;;;;5.28;3.92;;;21.10;70.50;;;;;;20822918;28;20064;-62
2021/09/26 22:32:51;;;;;;;9.75;4.03;;;21.10;70.70;;;;;;20832560;28;20033;-62
2021/09/26 22:42:52;;;;;;;9.35;3.95;;;21.10;70.90;;;;;;20831992;28;20480;-62
2021/09/26 22:52:53;;;;;;;10.77;4.78;;;21.10;70.90;;;;;;20831113;28;20484;-60
2021/09/26 23:03:06;;;;;;;9.90;3.25;;;21.10;71.00;;;;;;20829753;28;20402;-62
2021/09/26 23:13:08;;;;;;;8.18;4.47;;;21.00;71.30;;;;;;20828983;28;20033;-62
2021/09/26 23:23:09;;;;;;;8.50;3.72;;;21.00;71.20;;;;;;20810552;28;20072;-62
2021/09/26 23:33:12;;;;;;;5.10;3.33;;;21.00;71.40;;;;;;20827939;28;20068;-61
2021/09/26 23:43:36;;;;;;;8.27;4.28;;;21.00;71.70;;;;;;20827086;28;20033;-62
2021/09/26 23:53:37;;;;;;;4.10;3.58;;;21.00;71.90;;;;;;20840271;28;20029;-61
